Time;durP1;ratioP1;P1;durP2;ratioP2;P2;SDS_P1;SDS_P2;PMS_P1;PMS_P2;Temp;Humidity;BMP_temperature;BMP_pressure;BME280_temperature;BME280_humidity;BME280_pressure;Samples;Min_cycle;Max_cycle;Signal;HPM_P1;HPM_P2
2021/12/23 00:01:38;;;;;;;30.23;17.15;;;;;;;-145.18;100.00;47758.31;5046715;28;20041;-68
2021/12/23 00:04:04;;;;;;;32.22;16.65;;;;;;;-145.18;100.00;47729.00;5047525;28;20167;-67
2021/12/23 00:06:29;;;;;;;30.83;15.50;;;;;;;-145.18;100.00;47748.56;5046572;28;20565;-68
2021/12/23 00:08:57;;;;;;;32.10;16.87;;;;;;;-145.18;100.00;47768.09;5046815;28;20493;-68
2021/12/23 00:11:23;;;;;;;33.55;15.93;;;;;;;-145.18;100.00;47750.50;5046440;28;20037;-67
2021/12/23 00:13:59;;;;;;;31.38;16.70;;;;;;;-145.18;100.00;47748.56;5046958;28;20524;-68
2021/12/23 00:16:40;;;;;;;30.90;16.02;;;;;;;-145.18;100.00;47770.03;5046547;28;20456;-68
2021/12/23 00:19:17;;;;;;;32.20;16.30;;;;;;;-145.18;100.00;47738.78;5046894;28;20048;-67
2021/12/23 00:24:26;;;;;;;31.52;16.55;;;;;;;-145.18;100.00;47727.06;5046420;28;20055;-67
2021/12/23 00:26:51;;;;;;;26.87;15.03;;;;;;;-145.18;100.00;47754.41;5046793;28;20402;-67
2021/12/23 00:29:16;;;;;;;29.53;16.00;;;;;;;-145.18;100.00;47752.47;5046585;28;20112;-68
2021/12/23 00:31:42;;;;;;;31.70;15.77;;;;;;;-145.18;100.00;47727.06;5046584;28;20502;-68
2021/12/23 00:34:09;;;;;;;26.77;15.47;;;;;;;-145.18;100.00;47768.09;5046804;28;20533;-68
2021/12/23 00:36:36;;;;;;;28.33;15.43;;;;;;;-145.18;100.00;47772.00;5046645;28;20040;-68
2021/12/23 00:39:02;;;;;;;31.80;15.23;;;;;;;-145.18;100.00;47752.47;5047342;28;20033;-68
2021/12/23 00:41:30;;;;;;;28.17;15.18;;;;;;;-145.18;100.00;47732.94;5046321;28;20090;-68
2021/12/23 00:43:56;;;;;;;28.58;15.40;;;;;;;-145.18;100.00;47754.41;5046697;28;24766;-68
2021/12/23 00:46:21;;;;;;;29.80;15.10;;;;;;;-145.18;100.00;47750.50;5032278;28;20045;-68
2021/12/23 00:48:47;;;;;;;32.73;16.47;;;;;;;-145.18;100.00;47766.13;5050818;28;20037;-68
2021/12/23 00:51:13;;;;;;;31.77;15.40;;;;;;;-145.18;100.00;47762.22;5032219;28;20474;-68
2021/12/23 00:53:40;;;;;;;32.28;15.02;;;;;;;-145.18;100.00;47750.50;5050196;28;20045;-68
2021/12/23 00:56:06;;;;;;;28.85;15.85;;;;;;;-145.18;100.00;47727.06;5051201;28;20036;-67
2021/12/23 00:58:32;;;;;;;37.90;15.82;;;;;;;-145.18;100.00;47754.41;5050183;28;20037;-67
2021/12/23 01:01:00;;;;;;;30.47;15.33;;;;;;;-145.18;100.00;47744.66;5050276;28;20037;-68
2021/12/23 01:03:26;;;;;;;31.50;14.57;;;;;;;-145.18;100.00;47758.31;5050117;28;20049;-68
2021/12/23 01:05:51;;;;;;;29.30;14.53;;;;;;;-145.18;100.00;47756.38;5050129;28;20044;-67
2021/12/23 01:08:19;;;;;;;28.97;14.73;;;;;;;-145.18;100.00;47758.31;5050361;28;20540;-68
2021/12/23 01:10:52;;;;;;;30.95;14.55;;;;;;;-145.18;100.00;47752.47;5050046;28;20119;-68
2021/12/23 01:13:19;;;;;;;29.75;16.27;;;;;;;-145.18;100.00;47750.50;5050099;28;20482;-68
2021/12/23 01:16:00;;;;;;;30.27;16.20;;;;;;;-145.18;100.00;47742.69;5049993;28;20799;-68
2021/12/23 01:18:37;;;;;;;29.67;15.00;;;;;;;-145.18;100.00;47738.78;5049861;28;20048;-68
2021/12/23 01:21:05;;;;;;;29.85;14.95;;;;;;;-145.18;100.00;47746.59;5050029;28;20037;-68
2021/12/23 01:23:34;;;;;;;30.52;16.02;;;;;;;-145.18;100.00;47719.25;5049885;28;20033;-67
2021/12/23 01:26:00;;;;;;;31.30;15.93;;;;;;;-145.18;100.00;47736.84;5049664;28;20033;-68
2021/12/23 01:28:26;;;;;;;27.17;14.37;;;;;;;-145.18;100.00;47740.75;5049376;28;20049;-67
2021/12/23 01:30:52;;;;;;;33.87;15.93;;;;;;;-145.18;100.00;47746.59;5049803;28;20057;-68
2021/12/23 01:33:17;;;;;;;32.57;16.13;;;;;;;-145.18;100.00;47772.00;5050500;28;20271;-68
2021/12/23 01:35:45;;;;;;;29.20;16.33;;;;;;;-145.18;100.00;47746.59;5049585;28;20095;-68
2021/12/23 01:38:10;;;;;;;31.80;16.20;;;;;;;-145.18;100.00;47744.66;5049308;28;20041;-68
2021/12/23 01:40:37;;;;;;;33.97;15.77;;;;;;;-145.18;100.00;47748.56;5049395;28;20041;-68
2021/12/23 01:43:04;;;;;;;28.48;15.73;;;;;;;-145.18;100.00;47750.50;5049646;28;20033;-68
2021/12/23 01:45:32;;;;;;;30.95;15.98;;;;;;;-145.18;100.00;47762.22;5049415;28;20052;-68
2021/12/23 01:47:58;;;;;;;30.92;15.73;;;;;;;-145.18;100.00;47754.41;5049745;28;20452;-68
2021/12/23 01:50:27;;;;;;;33.67;16.70;;;;;;;-145.18;100.00;47738.78;5049301;28;20029;-68
2021/12/23 01:52:54;;;;;;;36.38;16.30;;;;;;;-145.18;100.00;47754.41;5049697;28;20051;-68
2021/12/23 01:55:20;;;;;;;30.83;15.75;;;;;;;-145.18;100.00;47742.69;5049049;28;20053;-68
2021/12/23 01:57:47;;;;;;;30.40;15.97;;;;;;;-145.18;100.00;47758.31;5049473;28;20486;-68
2021/12/23 02:00:15;;;;;;;29.73;14.90;;;;;;;-145.18;100.00;47781.78;5049124;28;20041;-68
2021/12/23 02:02:41;;;;;;;28.38;16.00;;;;;;;-145.18;100.00;47773.97;5048972;28;20037;-68
2021/12/23 02:05:08;;;;;;;31.57;15.27;;;;;;;-145.18;100.00;47754.41;5049385;28;20095;-68
2021/12/23 02:07:34;;;;;;;30.23;15.63;;;;;;;-145.18;100.00;47762.22;5048741;28;20459;-68
2021/12/23 02:09:59;;;;;;;29.03;15.83;;;;;;;-145.18;100.00;47762.22;5048979;28;20052;-69
2021/12/23 02:12:25;;;;;;;34.27;16.90;;;;;;;-145.18;100.00;47772.00;5049008;28;20037;-68
2021/12/23 02:14:51;;;;;;;31.37;15.67;;;;;;;-145.18;100.00;47772.00;5048973;28;20434;-68
2021/12/23 02:17:17;;;;;;;33.22;16.00;;;;;;;-145.18;100.00;47766.13;5048933;28;20110;-68
2021/12/23 02:19:42;;;;;;;30.70;16.03;;;;;;;-145.18;100.00;47777.88;5048434;28;20033;-67
2021/12/23 02:22:08;;;;;;;26.00;14.00;;;;;;;-145.18;100.00;47740.75;5048791;28;20037;-68
2021/12/23 02:24:33;;;;;;;33.13;15.43;;;;;;;-145.18;100.00;47781.78;5048337;28;20044;-68
2021/12/23 02:26:59;;;;;;;27.57;15.27;;;;;;;-145.18;100.00;47758.31;5049379;28;20037;-67
2021/12/23 02:29:24;;;;;;;29.30;15.37;;;;;;;-145.18;100.00;47760.28;5048520;28;20051;-67
2021/12/23 02:31:52;;;;;;;31.00;16.20;;;;;;;-145.18;100.00;47772.00;5048505;28;20094;-68
2021/12/23 02:34:19;;;;;;;30.77;16.00;;;;;;;-145.18;100.00;47783.72;5048443;28;20041;-67
2021/12/23 02:36:50;;;;;;;28.23;15.05;;;;;;;-145.18;100.00;47773.97;5048477;28;20611;-68
2021/12/23 02:39:15;;;;;;;33.17;16.10;;;;;;;-145.18;100.00;47764.19;5048578;28;20103;-67
2021/12/23 02:41:41;;;;;;;42.63;16.97;;;;;;;-145.18;100.00;47764.19;5047532;28;20449;-67
2021/12/23 02:44:06;;;;;;;36.95;18.42;;;;;;;-145.18;100.00;47773.97;5048200;28;20047;-68
2021/12/23 02:46:34;;;;;;;31.37;17.07;;;;;;;-145.18;100.00;47789.59;5048353;28;20709;-67
2021/12/23 02:49:00;;;;;;;36.65;17.88;;;;;;;-145.18;100.00;47758.31;5048341;28;20047;-67
2021/12/23 02:51:25;;;;;;;35.37;18.83;;;;;;;-145.18;100.00;47772.00;5029949;28;20061;-67
2021/12/23 02:53:50;;;;;;;37.30;18.07;;;;;;;-145.18;100.00;47789.59;5048424;28;20033;-67
2021/12/23 02:56:16;;;;;;;39.87;19.90;;;;;;;-145.18;100.00;47764.19;5048071;28;20045;-67
2021/12/23 02:58:44;;;;;;;34.87;18.40;;;;;;;-145.18;100.00;47752.47;5048034;28;20037;-67
2021/12/23 03:01:10;;;;;;;37.78;18.33;;;;;;;-145.18;100.00;47779.81;5048580;28;20139;-67
2021/12/23 03:03:35;;;;;;;36.43;18.57;;;;;;;-145.18;100.00;47742.69;5047964;28;20112;-67
2021/12/23 03:06:01;;;;;;;33.90;15.87;;;;;;;-145.18;100.00;47770.03;5047919;28;20445;-67
2021/12/23 03:08:33;;;;;;;35.03;18.73;;;;;;;-145.18;100.00;47770.03;5047070;28;20044;-66
2021/12/23 03:10:59;;;;;;;36.75;17.95;;;;;;;-145.18;100.00;47799.34;5047594;28;20449;-67
2021/12/23 03:13:25;;;;;;;41.80;18.53;;;;;;;-145.18;100.00;47754.41;5047566;28;20045;-68
2021/12/23 03:15:50;;;;;;;36.77;17.63;;;;;;;-145.18;100.00;47772.00;5047718;28;20095;-68
2021/12/23 03:18:16;;;;;;;36.37;16.20;;;;;;;-145.18;100.00;47777.88;5047968;28;20699;-68
2021/12/23 03:20:41;;;;;;;37.97;18.03;;;;;;;-145.18;100.00;47762.22;5030187;28;20037;-68
2021/12/23 03:23:06;;;;;;;36.77;17.00;;;;;;;-145.18;100.00;47789.59;5047198;28;20045;-68
2021/12/23 03:25:32;;;;;;;41.33;20.00;;;;;;;-145.18;100.00;47754.41;5047270;28;20678;-68
2021/12/23 03:27:58;;;;;;;39.23;20.13;;;;;;;-145.18;100.00;47748.56;5047607;28;20029;-67
2021/12/23 03:30:23;;;;;;;35.60;18.30;;;;;;;-145.18;100.00;47764.19;5047305;28;20493;-68
2021/12/23 03:32:49;;;;;;;37.53;18.57;;;;;;;-145.18;100.00;47773.97;5047279;28;20048;-68
2021/12/23 03:35:14;;;;;;;42.67;19.70;;;;;;;-145.18;100.00;47772.00;5046969;28;20053;-67
2021/12/23 03:37:40;;;;;;;43.97;20.57;;;;;;;-145.18;100.00;47779.81;5047336;28;20049;-68
2021/12/23 03:40:06;;;;;;;44.93;21.57;;;;;;;-145.18;100.00;47781.78;5046458;28;20417;-68
2021/12/23 03:42:32;;;;;;;44.30;21.25;;;;;;;-145.18;100.00;47795.44;5046829;28;20044;-68
2021/12/23 03:44:57;;;;;;;51.50;24.20;;;;;;;-145.18;100.00;47775.91;5046375;28;20029;-68
2021/12/23 03:47:22;;;;;;;63.33;26.60;;;;;;;-145.18;100.00;47791.53;5047077;28;20108;-68
2021/12/23 03:49:48;;;;;;;69.63;30.57;;;;;;;-145.18;100.00;47781.78;5048026;28;20441;-67
2021/12/23 03:52:13;;;;;;;66.27;29.00;;;;;;;-145.18;100.00;47781.78;5045674;28;20068;-68
2021/12/23 03:54:39;;;;;;;63.00;25.70;;;;;;;-145.18;100.00;47766.13;5026886;28;20038;-68
2021/12/23 03:57:04;;;;;;;63.23;27.07;;;;;;;-145.18;100.00;47756.38;5027069;28;20041;-68
2021/12/23 03:59:30;;;;;;;70.63;26.27;;;;;;;-145.18;100.00;47762.22;5026786;28;20622;-68
2021/12/23 04:01:55;;;;;;;60.50;24.70;;;;;;;-145.18;100.00;47754.41;5026940;28;20087;-68
2021/12/23 04:04:20;;;;;;;69.17;28.37;;;;;;;-145.18;100.00;47738.78;5027352;28;20103;-68
2021/12/23 04:06:46;;;;;;;64.40;26.90;;;;;;;-145.18;100.00;47760.28;5026867;28;20137;-68
2021/12/23 04:09:11;;;;;;;65.40;28.93;;;;;;;-145.18;100.00;47762.22;5026847;28;20852;-68
2021/12/23 04:11:37;;;;;;;74.63;30.47;;;;;;;-145.18;100.00;47775.91;5026260;28;20053;-68
2021/12/23 04:14:02;;;;;;;71.53;30.53;;;;;;;-145.18;100.00;47772.00;5026427;28;20033;-68
2021/12/23 04:16:27;;;;;;;63.77;27.30;;;;;;;-145.18;100.00;47773.97;5025816;28;20414;-68
2021/12/23 04:18:54;;;;;;;69.87;28.53;;;;;;;-145.18;100.00;47762.22;5025424;28;20049;-68
2021/12/23 04:21:19;;;;;;;73.35;28.42;;;;;;;-145.18;100.00;47783.72;5026411;28;20084;-68
2021/12/23 04:23:45;;;;;;;69.70;28.60;;;;;;;-145.18;100.00;47752.47;5026112;28;20065;-68
2021/12/23 04:26:11;;;;;;;69.70;29.20;;;;;;;-145.18;100.00;47762.22;5031707;28;20053;-68
2021/12/23 04:28:45;;;;;;;78.07;31.30;;;;;;;-145.18;100.00;47746.59;5027694;28;20063;-68
2021/12/23 04:31:12;;;;;;;70.32;28.58;;;;;;;-145.18;100.00;47754.41;5045964;28;20048;-68
2021/12/23 04:33:38;;;;;;;78.25;30.35;;;;;;;-145.18;100.00;47742.69;5045285;28;20029;-68
2021/12/23 04:36:03;;;;;;;78.13;32.07;;;;;;;-145.18;100.00;47766.13;5045590;28;20041;-68
2021/12/23 04:38:29;;;;;;;79.27;31.67;;;;;;;-145.18;100.00;47762.22;5046098;28;20120;-68
2021/12/23 04:40:54;;;;;;;79.63;31.00;;;;;;;-145.18;100.00;47772.00;5045065;28;20473;-67
2021/12/23 04:43:19;;;;;;;76.60;29.57;;;;;;;-145.18;100.00;47754.41;5039318;28;20064;-68
2021/12/23 04:45:45;;;;;;;80.40;29.20;;;;;;;-145.18;100.00;47762.22;4994580;28;20508;-68
2021/12/23 04:48:10;;;;;;;83.07;31.90;;;;;;;-145.18;100.00;47752.47;4994882;28;20041;-68
2021/12/23 04:50:36;;;;;;;75.90;30.47;;;;;;;-145.18;100.00;47756.38;5037849;28;20103;-68
2021/12/23 04:53:01;;;;;;;81.77;30.33;;;;;;;-145.18;100.00;47783.72;5035809;28;20627;-68
2021/12/23 04:55:28;;;;;;;81.13;32.93;;;;;;;-145.18;100.00;47746.59;5046112;28;20053;-68
2021/12/23 04:57:54;;;;;;;79.63;31.45;;;;;;;-145.18;100.00;47758.31;5045869;28;20056;-68
2021/12/23 05:00:21;;;;;;;76.50;32.00;;;;;;;-145.18;100.00;47758.31;5045978;28;20088;-69
2021/12/23 05:02:47;;;;;;;82.63;31.67;;;;;;;-145.18;100.00;47779.81;5046214;28;20037;-68
2021/12/23 05:05:14;;;;;;;77.30;30.25;;;;;;;-145.18;100.00;47762.22;5046155;28;20048;-69
2021/12/23 05:07:40;;;;;;;75.40;30.02;;;;;;;-145.18;100.00;47746.59;5044422;28;20049;-68
2021/12/23 05:10:09;;;;;;;80.43;31.50;;;;;;;-145.18;100.00;47756.38;5033487;28;20038;-68
2021/12/23 05:12:44;;;;;;;80.05;30.88;;;;;;;-145.18;100.00;47758.31;5024845;28;20038;-68
2021/12/23 05:15:19;;;;;;;77.18;29.85;;;;;;;-145.18;100.00;47773.97;5038332;28;20056;-68
2021/12/23 05:17:46;;;;;;;83.22;31.13;;;;;;;-145.18;100.00;47754.41;5045892;28;20037;-70
2021/12/23 05:20:14;;;;;;;88.05;33.33;;;;;;;-145.18;100.00;47752.47;5045684;28;20521;-68
2021/12/23 05:22:40;;;;;;;76.30;31.63;;;;;;;-145.18;100.00;47770.03;5045515;28;20041;-68
2021/12/23 05:25:08;;;;;;;78.40;30.33;;;;;;;-145.18;100.00;47742.69;5045764;28;20528;-68
2021/12/23 05:27:33;;;;;;;80.65;30.92;;;;;;;-145.18;100.00;47779.81;5045186;28;20110;-67
2021/12/23 05:29:59;;;;;;;80.33;32.80;;;;;;;-145.18;100.00;47752.47;5045865;28;20501;-68
2021/12/23 05:32:24;;;;;;;74.13;31.60;;;;;;;-145.18;100.00;47740.75;5048995;28;20035;-68
2021/12/23 05:34:49;;;;;;;75.70;31.77;;;;;;;-145.18;100.00;47768.09;5049548;28;20079;-68
2021/12/23 05:37:15;;;;;;;81.60;32.57;;;;;;;-145.18;100.00;47750.50;5046245;28;20053;-67
2021/12/23 05:39:41;;;;;;;74.60;30.20;;;;;;;-145.18;100.00;47750.50;5047149;28;20033;-68
2021/12/23 05:42:06;;;;;;;72.23;31.30;;;;;;;-145.18;100.00;47770.03;5046178;28;20041;-68
2021/12/23 05:44:32;;;;;;;75.73;29.87;;;;;;;-145.18;100.00;47777.88;5031518;28;20041;-68
2021/12/23 05:46:57;;;;;;;75.43;30.60;;;;;;;-145.18;100.00;47742.69;5029060;28;20512;-68
2021/12/23 05:49:23;;;;;;;77.33;30.10;;;;;;;-145.18;100.00;47754.41;5029314;28;20041;-68
2021/12/23 05:51:48;;;;;;;71.63;30.07;;;;;;;-145.18;100.00;47766.13;5011058;28;20149;-68
2021/12/23 05:54:14;;;;;;;78.23;28.53;;;;;;;-145.18;100.00;47768.09;5029011;28;20045;-68
2021/12/23 05:56:39;;;;;;;71.70;27.10;;;;;;;-145.18;100.00;47762.22;5046314;28;20120;-68
2021/12/23 05:59:05;;;;;;;80.10;28.90;;;;;;;-145.18;100.00;47762.22;5049063;28;20120;-68
2021/12/23 06:01:31;;;;;;;77.10;29.63;;;;;;;-145.18;100.00;47750.50;5049139;28;20042;-68
2021/12/23 06:03:56;;;;;;;81.75;32.17;;;;;;;-145.18;100.00;47742.69;5049393;28;20127;-68
2021/12/23 06:06:22;;;;;;;75.70;31.10;;;;;;;-145.18;100.00;47740.75;5048747;28;20060;-68
2021/12/23 06:08:47;;;;;;;77.77;30.60;;;;;;;-145.18;100.00;47766.13;5047601;28;20041;-67
2021/12/23 06:11:13;;;;;;;78.50;29.23;;;;;;;-145.18;100.00;47764.19;5048150;28;20090;-68
2021/12/23 06:13:38;;;;;;;77.30;28.77;;;;;;;-145.18;100.00;47732.94;5048542;28;20155;-68
2021/12/23 06:16:03;;;;;;;77.67;31.60;;;;;;;-145.18;100.00;47746.59;5046510;28;20393;-68
2021/12/23 06:18:29;;;;;;;80.57;31.17;;;;;;;-145.18;100.00;47758.31;5058279;28;20041;-67
2021/12/23 06:20:54;;;;;;;87.53;31.97;;;;;;;-145.18;100.00;47740.75;5047893;28;20504;-68
2021/12/23 06:23:20;;;;;;;82.20;31.63;;;;;;;-145.18;100.00;47756.38;5047717;28;20052;-68
2021/12/23 06:25:45;;;;;;;78.80;31.27;;;;;;;-145.18;100.00;47734.88;5047528;28;20041;-68
2021/12/23 06:28:12;;;;;;;81.83;30.90;;;;;;;-145.18;100.00;47758.31;5048411;28;20461;-68
2021/12/23 06:30:37;;;;;;;71.88;30.75;;;;;;;-145.18;100.00;47738.78;5048339;28;20033;-68
2021/12/23 06:33:02;;;;;;;81.73;31.20;;;;;;;-145.18;100.00;47754.41;5048407;28;20037;-68
2021/12/23 06:35:30;;;;;;;77.50;30.73;;;;;;;-145.18;100.00;47732.94;5047685;28;20037;-68
2021/12/23 06:38:01;;;;;;;76.07;31.33;;;;;;;-145.18;100.00;47746.59;5047754;28;20079;-68
2021/12/23 06:40:26;;;;;;;75.32;29.42;;;;;;;-145.18;100.00;47748.56;5047672;28;20087;-68
2021/12/23 06:42:51;;;;;;;76.07;29.87;;;;;;;-145.18;100.00;47754.41;5046729;28;20533;-68
2021/12/23 06:45:17;;;;;;;74.57;30.53;;;;;;;-145.18;100.00;47748.56;5048180;28;20044;-68
2021/12/23 06:47:44;;;;;;;77.67;30.87;;;;;;;-145.18;100.00;47744.66;5047509;28;20487;-68
2021/12/23 06:50:10;;;;;;;66.80;28.83;;;;;;;-145.18;100.00;47740.75;5047961;28;20463;-68
2021/12/23 06:52:37;;;;;;;73.97;30.05;;;;;;;-145.18;100.00;47744.66;5047033;28;20585;-68
2021/12/23 06:55:04;;;;;;;80.47;29.80;;;;;;;-145.18;100.00;47738.78;5047088;28;20619;-68
2021/12/23 06:57:30;;;;;;;81.78;32.08;;;;;;;-145.18;100.00;47750.50;5044941;28;20079;-68
2021/12/23 06:59:55;;;;;;;76.67;30.50;;;;;;;-145.18;100.00;47746.59;5046718;28;20406;-68
2021/12/23 07:02:21;;;;;;;75.23;29.77;;;;;;;-145.18;100.00;47740.75;5032433;28;20061;-68
2021/12/23 07:04:47;;;;;;;79.63;31.47;;;;;;;-145.18;100.00;47744.66;5034422;28;20038;-68
2021/12/23 07:07:23;;;;;;;80.37;30.73;;;;;;;-145.18;100.00;47738.78;5028273;28;20106;-68
2021/12/23 07:09:49;;;;;;;82.07;31.42;;;;;;;-145.18;100.00;47734.88;5026330;28;20059;-68
2021/12/23 07:12:14;;;;;;;72.33;30.33;;;;;;;-145.18;100.00;47750.50;5033199;28;20045;-68
2021/12/23 07:14:40;;;;;;;72.67;28.83;;;;;;;-145.18;100.00;47750.50;5040180;28;20068;-68
2021/12/23 07:17:07;;;;;;;69.27;27.60;;;;;;;-145.18;100.00;47764.19;5046706;28;20051;-68
2021/12/23 07:19:32;;;;;;;82.50;31.83;;;;;;;-145.18;100.00;47740.75;5046710;28;20029;-68
2021/12/23 07:21:58;;;;;;;78.17;30.20;;;;;;;-145.18;100.00;47719.25;5046856;28;20033;-68
2021/12/23 07:24:23;;;;;;;72.63;29.10;;;;;;;-145.18;100.00;47734.88;5046596;28;20037;-68
2021/12/23 07:26:49;;;;;;;75.20;29.40;;;;;;;-145.18;100.00;47744.66;5045623;28;20455;-68
2021/12/23 07:29:14;;;;;;;74.70;30.00;;;;;;;-145.18;100.00;47746.59;5046297;28;20502;-68
2021/12/23 07:31:40;;;;;;;72.30;30.27;;;;;;;-145.18;100.00;47742.69;5045556;28;20072;-68
2021/12/23 07:34:05;;;;;;;74.13;29.17;;;;;;;-145.18;100.00;47729.00;5046503;28;20132;-68
2021/12/23 07:36:31;;;;;;;70.97;28.03;;;;;;;-145.18;100.00;47738.78;5046258;28;20044;-68
2021/12/23 07:38:57;;;;;;;73.23;28.10;;;;;;;-145.18;100.00;47742.69;5047076;28;20817;-68
2021/12/23 07:41:23;;;;;;;75.53;30.40;;;;;;;-145.18;100.00;47750.50;5046008;28;20704;-67
2021/12/23 07:43:58;;;;;;;71.05;28.40;;;;;;;-145.18;100.00;47746.59;5046421;28;20041;-68
2021/12/23 07:46:29;;;;;;;76.20;29.20;;;;;;;-145.18;100.00;47719.25;5045665;28;20132;-68
2021/12/23 07:48:56;;;;;;;73.95;29.85;;;;;;;-145.18;100.00;47746.59;5045935;28;20045;-68
2021/12/23 07:51:22;;;;;;;71.35;29.75;;;;;;;-145.18;100.00;47738.78;5045165;28;20681;-68
2021/12/23 07:53:48;;;;;;;77.28;30.08;;;;;;;-145.18;100.00;47752.47;5045629;28;20033;-68
2021/12/23 07:56:14;;;;;;;75.90;29.67;;;;;;;-145.18;100.00;47727.06;5046288;28;20102;-68
2021/12/23 07:58:39;;;;;;;74.10;29.87;;;;;;;-145.18;100.00;47723.16;5045940;28;20043;-68
2021/12/23 08:01:05;;;;;;;65.83;26.93;;;;;;;-145.18;100.00;47717.28;5046874;28;20049;-68
2021/12/23 08:03:30;;;;;;;70.43;28.27;;;;;;;-145.18;100.00;47709.47;5029381;28;20037;-68
2021/12/23 08:05:56;;;;;;;75.83;30.07;;;;;;;-145.18;100.00;47719.25;5044906;28;20116;-68
2021/12/23 08:08:21;;;;;;;67.50;28.37;;;;;;;-145.18;100.00;47746.59;5040735;28;20042;-68
2021/12/23 08:10:48;;;;;;;70.83;29.53;;;;;;;-145.18;100.00;47740.75;5025941;28;20032;-68
2021/12/23 08:13:15;;;;;;;67.50;28.83;;;;;;;-145.18;100.00;47732.94;5043788;28;20052;-68
2021/12/23 08:15:40;;;;;;;77.82;29.83;;;;;;;-145.18;100.00;47734.88;5046771;28;20095;-68
2021/12/23 08:18:06;;;;;;;75.33;29.57;;;;;;;-145.18;100.00;47732.94;5046221;28;20037;-68
2021/12/23 08:20:31;;;;;;;79.13;29.93;;;;;;;-145.18;100.00;47729.00;5045689;28;20566;-68
2021/12/23 08:22:57;;;;;;;73.27;29.37;;;;;;;-145.18;100.00;47723.16;5046008;28;20056;-69
2021/12/23 08:25:23;;;;;;;70.87;28.60;;;;;;;-145.18;100.00;47730.97;5044708;28;20037;-68
2021/12/23 08:27:49;;;;;;;74.68;28.63;;;;;;;-145.18;100.00;47715.34;5033615;28;20061;-68
2021/12/23 08:30:18;;;;;;;79.53;30.50;;;;;;;-145.18;100.00;47744.66;5045888;28;20064;-69
2021/12/23 08:32:44;;;;;;;75.30;28.65;;;;;;;-145.18;100.00;47721.19;5059580;28;20402;-68
2021/12/23 08:35:10;;;;;;;75.18;29.75;;;;;;;-145.18;100.00;47738.78;5048812;28;20124;-68
2021/12/23 08:37:37;;;;;;;81.10;30.63;;;;;;;-145.18;100.00;47715.34;5045235;28;20033;-68
2021/12/23 08:40:04;;;;;;;79.03;29.10;;;;;;;-145.18;100.00;47723.16;5045982;28;20033;-68
2021/12/23 08:42:30;;;;;;;72.60;29.67;;;;;;;-145.18;100.00;47703.63;5045498;28;20072;-68
2021/12/23 08:44:55;;;;;;;71.17;28.27;;;;;;;-145.18;100.00;47715.34;5044480;28;20712;-69
2021/12/23 08:47:21;;;;;;;69.93;27.17;;;;;;;-145.18;100.00;47686.03;5045569;28;20034;-68
2021/12/23 08:49:46;;;;;;;78.70;29.10;;;;;;;-145.18;100.00;47713.38;5046163;28;20033;-69
2021/12/23 08:52:13;;;;;;;71.47;27.83;;;;;;;-145.18;100.00;47664.53;5045566;28;20124;-68
2021/12/23 08:54:41;;;;;;;68.03;28.10;;;;;;;-145.18;100.00;47727.06;5045812;28;20543;-68
2021/12/23 08:57:07;;;;;;;73.45;26.77;;;;;;;-145.18;100.00;47707.53;5044496;28;21225;-68
2021/12/23 08:59:32;;;;;;;67.83;28.20;;;;;;;-145.18;100.00;47703.63;5046017;28;20041;-69
2021/12/23 09:01:58;;;;;;;71.23;26.70;;;;;;;-145.18;100.00;47721.19;5045536;28;20044;-69
2021/12/23 09:04:23;;;;;;;65.83;26.53;;;;;;;-145.18;100.00;47721.19;5045448;28;20044;-69
2021/12/23 09:07:12;;;;;;;71.63;28.50;;;;;;;-145.18;100.00;47717.28;5049265;28;20048;-69
2021/12/23 09:09:36;;;;;;;70.40;27.63;;;;;;;-145.18;100.00;47701.66;5047062;28;20218;-69
2021/12/23 09:12:03;;;;;;;78.57;28.23;;;;;;;-145.18;100.00;47699.72;5049030;28;20107;-68
2021/12/23 09:14:29;;;;;;;68.72;27.75;;;;;;;-145.18;100.00;47701.66;5049372;28;20041;-69
2021/12/23 09:16:54;;;;;;;71.57;28.63;;;;;;;-145.18;100.00;47695.81;5049066;28;20041;-69
2021/12/23 09:19:19;;;;;;;71.07;28.73;;;;;;;-145.18;100.00;47723.16;5049469;28;20127;-68
2021/12/23 09:21:45;;;;;;;72.07;27.00;;;;;;;-145.18;100.00;47693.84;5049418;28;20567;-69
2021/12/23 09:24:11;;;;;;;68.00;27.73;;;;;;;-145.18;100.00;47705.56;5049597;28;20067;-69
2021/12/23 09:26:46;;;;;;;69.80;28.10;;;;;;;-145.18;100.00;47701.66;5048586;28;20431;-69
2021/12/23 09:34:41;;;;;;;66.78;26.17;;;;;;;-145.18;100.00;47693.84;5048863;28;20048;-70
2021/12/23 09:37:07;;;;;;;71.10;27.33;;;;;;;-145.18;100.00;47715.34;5048936;28;20041;-70
2021/12/23 09:39:32;;;;;;;65.60;26.57;;;;;;;-145.18;100.00;47709.47;5047603;28;20091;-70
2021/12/23 09:41:58;;;;;;;67.13;25.53;;;;;;;-145.18;100.00;47680.16;5048479;28;20033;-70
2021/12/23 09:44:24;;;;;;;76.60;29.43;;;;;;;-145.18;100.00;47674.31;5047359;28;20052;-71
2021/12/23 09:46:50;;;;;;;65.82;23.35;;;;;;;-145.18;100.00;47691.91;5048947;28;20033;-71
2021/12/23 09:49:16;;;;;;;63.25;26.38;;;;;;;-145.18;100.00;47674.31;5043623;28;20512;-71
2021/12/23 09:51:42;;;;;;;69.43;27.40;;;;;;;-145.18;100.00;47691.91;5048625;28;20033;-71
2021/12/23 09:54:08;;;;;;;71.27;26.87;;;;;;;-145.18;100.00;47699.72;5045183;28;20490;-70
2021/12/23 09:56:34;;;;;;;64.90;26.83;;;;;;;-145.18;100.00;47691.91;5049035;28;20108;-71
2021/12/23 09:59:00;;;;;;;66.13;26.70;;;;;;;-145.18;100.00;47693.84;5049003;28;20032;-72
2021/12/23 10:01:28;;;;;;;66.45;26.52;;;;;;;-145.18;100.00;47699.72;5049104;28;20860;-71
2021/12/23 10:03:53;;;;;;;76.53;28.67;;;;;;;-145.18;100.00;47703.63;5044287;28;20051;-73
2021/12/23 10:06:19;;;;;;;66.53;25.37;;;;;;;-145.18;100.00;47691.91;5040099;28;20037;-74
2021/12/23 10:08:45;;;;;;;69.17;27.97;;;;;;;-145.18;100.00;47674.31;5026455;28;20441;-71
2021/12/23 10:11:42;;;;;;;72.10;27.02;;;;;;;-145.18;100.00;47705.56;5030988;28;20039;-74
2021/12/23 10:30:28;;;;;;;71.50;27.65;;;;;;;-145.18;100.00;47672.34;5036914;28;20049;-73
2021/12/23 10:38:21;;;;;;;73.80;26.33;;;;;;;-145.18;100.00;47650.88;5034779;28;20048;-73
2021/12/23 10:40:51;;;;;;;65.18;25.77;;;;;;;-145.18;100.00;47672.34;5032498;28;20107;-73
2021/12/23 10:43:40;;;;;;;64.25;26.52;;;;;;;-145.18;100.00;47648.91;5031876;28;20037;-73
2021/12/23 10:46:10;;;;;;;65.32;26.02;;;;;;;-145.18;100.00;47654.78;5023147;28;20037;-73
2021/12/23 10:49:06;;;;;;;62.75;24.58;;;;;;;-145.18;100.00;47672.34;5036515;28;20052;-73
2021/12/23 10:52:09;;;;;;;64.57;24.48;;;;;;;-145.18;100.00;47664.53;5033937;28;20130;-73
2021/12/23 11:00:49;;;;;;;61.97;24.00;;;;;;;-145.18;100.00;47654.78;4965994;28;20085;-73
2021/12/23 11:03:31;;;;;;;67.65;24.90;;;;;;;-145.18;100.00;47648.91;4965461;28;20109;-73
2021/12/23 11:06:28;;;;;;;60.92;23.52;;;;;;;-145.18;100.00;47654.78;5013137;28;20049;-73
2021/12/23 11:08:56;;;;;;;61.92;23.95;;;;;;;-145.18;100.00;47668.44;5031626;28;20107;-74
2021/12/23 11:11:43;;;;;;;58.58;25.20;;;;;;;-145.18;100.00;47650.88;5027770;28;20049;-72
2021/12/23 11:36:32;;;;;;;58.45;24.88;;;;;;;-145.18;100.00;47639.13;5046975;28;20509;-74
2021/12/23 11:39:09;;;;;;;57.85;22.83;;;;;;;-145.18;100.00;47625.47;5046854;28;20032;-73
2021/12/23 11:41:39;;;;;;;64.53;25.85;;;;;;;-145.18;100.00;47609.84;5046765;28;20034;-73
2021/12/23 11:44:06;;;;;;;57.15;23.90;;;;;;;-145.18;100.00;47594.19;5046923;28;20056;-73
2021/12/23 11:46:52;;;;;;;55.80;25.48;;;;;;;-145.18;100.00;47611.78;5046195;28;20071;-73
2021/12/23 11:49:18;;;;;;;61.83;24.27;;;;;;;-145.18;100.00;47582.47;5046686;28;20045;-73
2021/12/23 11:54:20;;;;;;;62.15;24.17;;;;;;;-145.18;100.00;47594.19;5045911;28;20045;-74
2021/12/23 11:57:01;;;;;;;55.25;21.58;;;;;;;-145.18;100.00;47594.19;5040693;28;20063;-74